createdAt,value
2024-01-20T13:34:21.668Z,-1.2
2024-01-20T13:40:02.328Z,-1.3
2024-01-20T13:45:40.439Z,-1.4
2024-01-20T13:51:23.813Z,-1.6
2024-01-20T13:57:17.239Z,-1.4
2024-01-20T14:02:56.747Z,-1.5
2024-01-20T14:08:36.472Z,-1.3
2024-01-20T14:14:15.586Z,-1.4
2024-01-20T14:19:57.576Z,-1.5
2024-01-20T14:25:39.591Z,-1.6
2024-01-20T14:31:19.415Z,-1.6
2024-01-20T14:36:59.016Z,-1.7
2024-01-20T14:42:21.993Z,-1.6
2024-01-20T14:48:00.953Z,-1.6
2024-01-20T14:53:41.588Z,-1.8
2024-01-20T14:59:20.385Z,-1.7
2024-01-20T15:05:02.718Z,-1.7
2024-01-20T15:10:44.395Z,-1.8
2024-01-20T15:16:24.850Z,-1.8
2024-01-20T15:22:07.367Z,-1.8
2024-01-20T15:27:45.560Z,-1.8
2024-01-20T15:33:27.814Z,-1.8
2024-01-20T15:39:09.645Z,-1.8
2024-01-20T15:44:48.446Z,-1.8
2024-01-20T15:50:28.200Z,-1.8
2024-01-20T15:56:07.310Z,-1.7
2024-01-20T16:01:30.798Z,-1.6
2024-01-20T16:07:12.303Z,-1.5
2024-01-20T16:12:52.096Z,-1.4
2024-01-20T16:18:34.199Z,-1.4
2024-01-20T16:24:00.409Z,-1.4
2024-01-20T16:29:25.308Z,-1.4
2024-01-20T16:34:49.423Z,-1.4
2024-01-20T16:40:28.299Z,-1.4
2024-01-20T16:46:09.629Z,-1.5
2024-01-20T16:51:41.325Z,-1.5
2024-01-20T16:57:18.264Z,-1.5
2024-01-20T17:02:29.722Z,-1.5
2024-01-20T17:07:38.686Z,-1.5
2024-01-20T17:13:02.204Z,-1.5
2024-01-20T17:18:41.846Z,-1.5
2024-01-20T17:24:05.383Z,-1.5
2024-01-20T17:29:45.693Z,-1.5
2024-01-20T17:34:56.984Z,-1.5
2024-01-20T17:40:36.237Z,-1.6
2024-01-20T17:46:00.132Z,-1.5
2024-01-20T17:51:24.233Z,-1.5
2024-01-20T17:56:31.974Z,-1.6
2024-01-20T18:01:58.858Z,-1.5
2024-01-20T18:07:24.737Z,-1.4
2024-01-20T18:12:47.608Z,-1.4
2024-01-20T18:18:26.671Z,-1.4
2024-01-20T18:24:06.334Z,-1.4
2024-01-20T18:29:47.433Z,-1.4
2024-01-20T18:35:26.611Z,-1.4
2024-01-20T18:41:05.771Z,-1.4
2024-01-20T18:46:46.868Z,-1.4
2024-01-20T18:52:10.969Z,-1.4
2024-01-20T18:57:34.419Z,-1.4
2024-01-20T19:03:13.232Z,-1.4
2024-01-20T19:08:38.412Z,-1.4
2024-01-20T19:14:02.286Z,-1.4
2024-01-20T19:19:43.308Z,-1.4
2024-01-20T19:25:24.919Z,-1.4
2024-01-20T19:31:20.288Z,-1.4
2024-01-20T19:36:45.635Z,-1.4
2024-01-20T19:42:25.880Z,-1.4
2024-01-20T19:48:06.944Z,-1.4
2024-01-20T19:53:46.599Z,-1.4
2024-01-20T19:59:27.938Z,-1.4
2024-01-20T20:05:08.772Z,-1.4
2024-01-20T20:10:47.555Z,-1.4
2024-01-20T20:15:55.633Z,-1.4
2024-01-20T20:21:35.378Z,-1.5
2024-01-20T20:27:14.672Z,-1.5
2024-01-20T20:33:03.115Z,-1.4
2024-01-20T20:38:58.284Z,-1.4
2024-01-20T20:44:37.252Z,-1.4
2024-01-20T20:50:17.003Z,-1.5
2024-01-20T20:55:57.324Z,-1.5
2024-01-20T21:01:38.162Z,-1.6
2024-01-20T21:07:18.230Z,-1.6
2024-01-20T21:12:26.256Z,-1.6
2024-01-20T21:18:05.383Z,-1.7
2024-01-20T21:23:30.992Z,-1.7
2024-01-20T21:29:10.692Z,-1.8
2024-01-20T21:34:51.935Z,-1.8
2024-01-20T21:40:30.360Z,-1.8
2024-01-20T21:46:09.152Z,-1.7
2024-01-20T21:51:49.245Z,-1.8
2024-01-20T21:57:27.927Z,-1.8
2024-01-20T22:03:07.816Z,-1.7
2024-01-20T22:08:46.760Z,-1.8
2024-01-20T22:14:09.783Z,-1.8
2024-01-20T22:19:49.199Z,-1.9
2024-01-20T22:25:27.520Z,-1.9
2024-01-20T22:31:17.940Z,-1.9
2024-01-20T22:36:57.633Z,-2
2024-01-20T22:42:21.507Z,-2.1
2024-01-20T22:48:01.425Z,-2.1
2024-01-20T22:53:41.369Z,-2.3
2024-01-20T22:59:20.107Z,-2.3
2024-01-20T23:05:00.643Z,-2.2
2024-01-20T23:10:39.599Z,-2.1
2024-01-20T23:16:21.057Z,-2.2
2024-01-20T23:22:00.737Z,-2.2
2024-01-20T23:27:39.822Z,-2.3
2024-01-20T23:33:18.991Z,-2.1
2024-01-20T23:38:58.281Z,-2.2
2024-01-20T23:44:38.105Z,-2.1
2024-01-20T23:50:17.625Z,-2.1
2024-01-20T23:55:41.122Z,-2.1
